Time;durP1;ratioP1;P1;durP2;ratioP2;P2;SDS_P1;SDS_P2;PMS_P1;PMS_P2;Temp;Humidity;BMP_temperature;BMP_pressure;BME280_temperature;BME280_humidity;BME280_pressure;Samples;Min_cycle;Max_cycle;Signal;HPM_P1;HPM_P2
2022/09/04 00:08:25;;;;;;;41.15;28.40;;;;;;;;;;5030335;28;20052;-68
2022/09/04 00:11:04;;;;;;;36.75;28.17;;;;;;;;;;5042060;28;20040;-68
2022/09/04 00:13:44;;;;;;;35.15;27.70;;;;;;;;;;5033061;28;20113;-68
2022/09/04 00:16:22;;;;;;;36.92;28.35;;;;;;;;;;5037797;28;20056;-68
2022/09/04 00:18:51;;;;;;;36.17;28.42;;;;;;;;;;5021546;28;20064;-68
2022/09/04 00:21:19;;;;;;;35.88;27.63;;;;;;;;;;5024126;28;20464;-68
2022/09/04 00:23:55;;;;;;;39.45;28.52;;;;;;;;;;5033464;28;20044;-68
2022/09/04 00:26:40;;;;;;;38.63;28.70;;;;;;;;;;5039726;28;20381;-67
2022/09/04 00:29:27;;;;;;;43.20;29.13;;;;;;;;;;5040921;28;20059;-68
2022/09/04 00:32:05;;;;;;;43.65;29.65;;;;;;;;;;4992956;28;20055;-68
2022/09/04 00:34:52;;;;;;;37.53;28.73;;;;;;;;;;5020947;28;20041;-68
2022/09/04 00:37:21;;;;;;;40.88;28.90;;;;;;;;;;5022918;28;20049;-68
2022/09/04 00:40:01;;;;;;;41.38;28.80;;;;;;;;;;5029544;28;20041;-68
2022/09/04 00:42:46;;;;;;;41.42;29.55;;;;;;;;;;5030628;28;20508;-66
2022/09/04 00:45:22;;;;;;;38.25;28.80;;;;;;;;;;5020310;28;20045;-67
2022/09/04 00:47:59;;;;;;;40.03;28.38;;;;;;;;;;5022235;28;20048;-68
2022/09/04 00:50:32;;;;;;;39.30;29.63;;;;;;;;;;5030790;28;20045;-68
2022/09/04 00:53:05;;;;;;;39.00;29.05;;;;;;;;;;5041998;28;20148;-68
2022/09/04 00:55:51;;;;;;;42.50;29.42;;;;;;;;;;5030973;28;20041;-68
2022/09/04 00:58:26;;;;;;;40.38;29.17;;;;;;;;;;5032283;28;20052;-68
2022/09/04 01:00:55;;;;;;;37.75;28.20;;;;;;;;;;5032160;28;20033;-68
2022/09/04 01:03:29;;;;;;;38.40;28.35;;;;;;;;;;5021472;28;20154;-68
2022/09/04 01:06:05;;;;;;;38.33;28.73;;;;;;;;;;5019850;28;20045;-67
2022/09/04 01:08:41;;;;;;;39.65;29.15;;;;;;;;;;5020341;28;20069;-68
2022/09/04 01:11:26;;;;;;;41.80;28.77;;;;;;;;;;5021311;28;20060;-68
2022/09/04 01:13:52;;;;;;;36.13;28.23;;;;;;;;;;5028814;28;20041;-67
2022/09/04 01:16:27;;;;;;;40.72;29.13;;;;;;;;;;5045487;28;20053;-67
2022/09/04 01:19:04;;;;;;;42.05;28.77;;;;;;;;;;5049473;28;20063;-67
2022/09/04 01:21:52;;;;;;;38.53;28.65;;;;;;;;;;5031167;28;20041;-67
2022/09/04 01:24:22;;;;;;;41.38;28.52;;;;;;;;;;5056035;28;20210;-67
2022/09/04 01:27:09;;;;;;;45.78;29.13;;;;;;;;;;5031525;28;20040;-67
2022/09/04 01:29:38;;;;;;;41.92;29.27;;;;;;;;;;5047759;28;20049;-67
2022/09/04 01:32:10;;;;;;;41.28;29.38;;;;;;;;;;5035196;28;20033;-67
2022/09/04 01:34:36;;;;;;;;;;;;;;;;;;5030581;28;20044;-66
2022/09/04 01:37:20;;;;;;;41.78;29.45;;;;;;;;;;5023791;28;19958;-67
2022/09/04 01:39:50;;;;;;;42.20;28.98;;;;;;;;;;5033478;28;20037;-67
2022/09/04 01:42:20;;;;;;;42.83;29.35;;;;;;;;;;5040910;28;20049;-67
2022/09/04 01:44:48;;;;;;;44.45;30.15;;;;;;;;;;5039151;28;20043;-67
2022/09/04 01:47:25;;;;;;;44.15;29.67;;;;;;;;;;5040261;28;20063;-67
2022/09/04 01:50:03;;;;;;;44.58;30.85;;;;;;;;;;5055829;28;20049;-67
2022/09/04 01:52:38;;;;;;;43.72;30.65;;;;;;;;;;5026568;28;20038;-67
2022/09/04 01:55:17;;;;;;;49.40;29.83;;;;;;;;;;5041532;28;20512;-67
2022/09/04 01:58:02;;;;;;;43.47;29.42;;;;;;;;;;5038679;28;20049;-66
2022/09/04 02:00:33;;;;;;;69.25;32.90;;;;;;;;;;5039443;28;20056;-66
2022/09/04 02:03:05;;;;;;;50.55;31.35;;;;;;;;;;5040624;28;20048;-67
2022/09/04 02:05:32;;;;;;;60.22;35.22;;;;;;;;;;5040272;28;20072;-66
2022/09/04 02:08:14;;;;;;;49.25;30.45;;;;;;;;;;5039255;28;20051;-66
2022/09/04 02:10:49;;;;;;;54.57;32.77;;;;;;;;;;5043368;28;20037;-66
2022/09/04 02:13:43;;;;;;;50.47;32.53;;;;;;;;;;5033804;28;20760;-66
2022/09/04 02:16:22;;;;;;;52.25;34.53;;;;;;;;;;5026249;28;20125;-66
2022/09/04 02:19:21;;;;;;;48.85;33.50;;;;;;;;;;5027702;28;20485;-67
2022/09/04 02:21:51;;;;;;;64.53;41.75;;;;;;;;;;5011351;28;20089;-66
2022/09/04 02:24:21;;;;;;;55.55;36.58;;;;;;;;;;5034026;28;20047;-68
2022/09/04 02:26:52;;;;;;;55.65;35.17;;;;;;;;;;5022797;28;20067;-65
2022/09/04 02:29:19;;;;;;;59.88;34.85;;;;;;;;;;5024934;28;20397;-67
2022/09/04 02:32:01;;;;;;;55.45;36.17;;;;;;;;;;5033957;28;20049;-66
2022/09/04 02:34:27;;;;;;;53.17;32.90;;;;;;;;;;5022772;28;20830;-66
2022/09/04 02:37:09;;;;;;;51.25;33.60;;;;;;;;;;5033008;28;20045;-68
2022/09/04 02:39:55;;;;;;;54.23;34.57;;;;;;;;;;5039697;28;20164;-65
2022/09/04 02:42:41;;;;;;;54.40;33.85;;;;;;;;;;5040484;28;20036;-66
2022/09/04 02:45:07;;;;;;;48.00;32.55;;;;;;;;;;5041427;28;20054;-67
2022/09/04 02:47:44;;;;;;;51.25;32.20;;;;;;;;;;5045109;28;20775;-65
2022/09/04 02:50:13;;;;;;;44.25;30.83;;;;;;;;;;5044265;28;20044;-66
2022/09/04 02:52:52;;;;;;;46.83;30.98;;;;;;;;;;5038447;28;20084;-66
2022/09/04 02:55:30;;;;;;;43.08;29.55;;;;;;;;;;5038859;28;20044;-66
2022/09/04 02:57:57;;;;;;;49.22;29.60;;;;;;;;;;5032185;28;20037;-66
2022/09/04 03:00:32;;;;;;;68.38;28.88;;;;;;;;;;5037894;28;20045;-66
2022/09/04 03:03:04;;;;;;;46.63;27.23;;;;;;;;;;5039543;28;20044;-66
2022/09/04 03:05:33;;;;;;;41.05;26.63;;;;;;;;;;5037529;28;20401;-66
2022/09/04 03:08:23;;;;;;;41.45;26.80;;;;;;;;;;5038373;28;20602;-66
2022/09/04 03:11:02;;;;;;;38.92;26.88;;;;;;;;;;5031061;28;20048;-66
2022/09/04 03:13:29;;;;;;;44.10;26.60;;;;;;;;;;5040197;28;20037;-66
2022/09/04 03:16:01;;;;;;;42.65;27.63;;;;;;;;;;5037932;28;20053;-66
2022/09/04 03:18:34;;;;;;;44.57;27.57;;;;;;;;;;5039643;28;20136;-67
2022/09/04 03:21:06;;;;;;;43.15;28.92;;;;;;;;;;5041503;28;20045;-67
2022/09/04 03:23:32;;;;;;;41.67;28.00;;;;;;;;;;5039216;28;20040;-66
2022/09/04 03:26:38;;;;;;;59.00;30.50;;;;;;;;;;5040347;28;20128;-66
2022/09/04 03:29:23;;;;;;;42.47;27.20;;;;;;;;;;4990069;28;20046;-66
2022/09/04 03:31:50;;;;;;;42.88;27.13;;;;;;;;;;4995360;28;20038;-66
2022/09/04 03:34:16;;;;;;;40.20;26.38;;;;;;;;;;5022529;28;20051;-66
2022/09/04 03:36:53;;;;;;;35.05;24.55;;;;;;;;;;5044042;28;20071;-66
2022/09/04 03:39:20;;;;;;;41.17;25.02;;;;;;;;;;5041574;28;20045;-66
2022/09/04 03:41:50;;;;;;;45.17;25.95;;;;;;;;;;5046594;28;20962;-65
2022/09/04 03:44:17;;;;;;;38.58;24.40;;;;;;;;;;5045109;28;20060;-64
2022/09/04 03:46:51;;;;;;;46.45;26.40;;;;;;;;;;5045171;28;20095;-65
2022/09/04 03:49:37;;;;;;;42.70;25.88;;;;;;;;;;5061637;28;20504;-65
2022/09/04 03:52:06;;;;;;;41.85;25.05;;;;;;;;;;5045953;28;20052;-66
2022/09/04 03:54:34;;;;;;;41.38;24.52;;;;;;;;;;5045400;28;20029;-66
2022/09/04 03:57:05;;;;;;;38.05;24.17;;;;;;;;;;5048289;28;20057;-66
2022/09/04 03:59:40;;;;;;;43.22;24.73;;;;;;;;;;5048852;28;20041;-66
2022/09/04 04:02:14;;;;;;;41.50;25.73;;;;;;;;;;5051271;28;20037;-66
2022/09/04 04:04:59;;;;;;;42.70;26.13;;;;;;;;;;5048029;28;20044;-66
2022/09/04 04:07:46;;;;;;;44.42;25.02;;;;;;;;;;5044814;28;20099;-66
2022/09/04 04:10:39;;;;;;;38.90;24.58;;;;;;;;;;5045663;28;20045;-66
2022/09/04 04:13:11;;;;;;;;;;;;;;;;;;5031789;28;20041;-66
2022/09/04 04:15:52;;;;;;;39.83;23.80;;;;;;;;;;5040031;28;20396;-66
2022/09/04 04:18:35;;;;;;;43.15;25.63;;;;;;;;;;5040495;28;20052;-66
2022/09/04 04:21:13;;;;;;;39.70;24.52;;;;;;;;;;5039159;28;20044;-66
2022/09/04 04:23:59;;;;;;;48.17;27.20;;;;;;;;;;5043097;28;20048;-66
2022/09/04 04:26:25;;;;;;;46.72;26.00;;;;;;;;;;5039126;28;20129;-66
2022/09/04 04:29:10;;;;;;;44.22;25.63;;;;;;;;;;5022987;28;20037;-66
2022/09/04 04:32:12;;;;;;;49.55;28.80;;;;;;;;;;5049118;28;20521;-66
2022/09/04 04:34:38;;;;;;;44.72;27.33;;;;;;;;;;5039050;28;20045;-66
2022/09/04 04:37:12;;;;;;;41.55;27.92;;;;;;;;;;5040534;28;20049;-65
2022/09/04 04:39:48;;;;;;;44.60;27.83;;;;;;;;;;5039498;28;20086;-65
2022/09/04 04:42:16;;;;;;;43.00;27.17;;;;;;;;;;5038384;28;20055;-65
2022/09/04 04:47:52;;;;;;;47.53;28.52;;;;;;;;;;5021947;28;20076;-66
2022/09/04 04:50:38;;;;;;;45.25;28.02;;;;;;;;;;5036531;28;20037;-66
2022/09/04 04:53:05;;;;;;;44.15;27.00;;;;;;;;;;5041582;28;20128;-68
2022/09/04 04:55:32;;;;;;;53.47;27.38;;;;;;;;;;5041216;28;21676;-69
2022/09/04 04:57:58;;;;;;;43.05;26.98;;;;;;;;;;5033645;28;20554;-69
2022/09/04 05:00:31;;;;;;;48.67;27.98;;;;;;;;;;5025628;28;20037;-68
2022/09/04 05:03:01;;;;;;;46.70;27.65;;;;;;;;;;5039617;28;20048;-69
2022/09/04 05:05:48;;;;;;;42.30;27.63;;;;;;;;;;5038349;28;20057;-69
2022/09/04 05:08:16;;;;;;;46.03;28.77;;;;;;;;;;5040037;28;20120;-69
2022/09/04 05:10:42;;;;;;;39.80;27.00;;;;;;;;;;5038745;28;20040;-69
2022/09/04 05:13:16;;;;;;;41.22;27.75;;;;;;;;;;5040342;28;20064;-69
2022/09/04 05:15:45;;;;;;;47.42;26.75;;;;;;;;;;5036762;28;20045;-68
2022/09/04 05:18:31;;;;;;;41.30;26.85;;;;;;;;;;5029274;28;20090;-68
2022/09/04 05:21:03;;;;;;;48.30;27.77;;;;;;;;;;5043067;28;20045;-67
2022/09/04 05:23:39;;;;;;;40.25;27.70;;;;;;;;;;5026264;28;20037;-68
2022/09/04 05:26:08;;;;;;;44.58;28.40;;;;;;;;;;5034853;28;20110;-67
2022/09/04 05:28:55;;;;;;;48.45;28.23;;;;;;;;;;5038747;28;20096;-68
2022/09/04 05:31:32;;;;;;;44.42;29.52;;;;;;;;;;5039493;28;20095;-68
2022/09/04 05:34:07;;;;;;;52.53;28.98;;;;;;;;;;5040759;28;20112;-68
2022/09/04 05:36:43;;;;;;;48.92;28.27;;;;;;;;;;5040483;28;20049;-69
2022/09/04 05:39:15;;;;;;;46.78;29.38;;;;;;;;;;5040617;28;20052;-69
2022/09/04 05:41:54;;;;;;;56.38;31.80;;;;;;;;;;5040772;28;20616;-68
2022/09/04 05:44:45;;;;;;;62.08;33.25;;;;;;;;;;5040989;28;20065;-68
2022/09/04 05:47:26;;;;;;;53.22;32.72;;;;;;;;;;5040812;28;20064;-68
2022/09/04 05:50:12;;;;;;;51.72;32.38;;;;;;;;;;5035257;28;20055;-68
2022/09/04 05:52:45;;;;;;;52.05;33.22;;;;;;;;;;5030081;28;20574;-68
2022/09/04 05:55:24;;;;;;;55.53;33.25;;;;;;;;;;5020485;28;20120;-69
2022/09/04 05:58:09;;;;;;;55.00;33.60;;;;;;;;;;5021062;28;20037;-69
2022/09/04 06:00:45;;;;;;;56.92;33.53;;;;;;;;;;5029322;28;20041;-68
2022/09/04 06:03:30;;;;;;;60.08;35.40;;;;;;;;;;5039770;28;20049;-68
2022/09/04 06:06:15;;;;;;;56.10;34.80;;;;;;;;;;5033792;28;20417;-68
2022/09/04 06:08:51;;;;;;;58.03;36.25;;;;;;;;;;5036456;28;20045;-67
2022/09/04 06:11:36;;;;;;;55.35;35.67;;;;;;;;;;5038419;28;20124;-67
2022/09/04 06:14:11;;;;;;;52.47;34.75;;;;;;;;;;5040978;28;20123;-67
2022/09/04 06:16:43;;;;;;;56.85;36.25;;;;;;;;;;5042360;28;20110;-68
2022/09/04 06:19:16;;;;;;;49.55;33.45;;;;;;;;;;5055716;28;20056;-68
2022/09/04 06:22:01;;;;;;;57.22;34.22;;;;;;;;;;5041492;28;22417;-67
2022/09/04 06:24:39;;;;;;;54.58;32.90;;;;;;;;;;5040513;28;20029;-67
2022/09/04 06:27:22;;;;;;;54.47;34.03;;;;;;;;;;5022919;28;20061;-67
2022/09/04 06:29:57;;;;;;;55.65;33.63;;;;;;;;;;5021481;28;20688;-67
2022/09/04 06:32:24;;;;;;;57.88;33.75;;;;;;;;;;5022724;28;20068;-67
2022/09/04 06:34:57;;;;;;;58.13;35.20;;;;;;;;;;5021555;28;20116;-67
2022/09/04 06:37:24;;;;;;;54.90;34.45;;;;;;;;;;5020868;28;20049;-68
2022/09/04 06:39:59;;;;;;;56.80;35.72;;;;;;;;;;5039195;28;20036;-67
2022/09/04 06:42:25;;;;;;;60.35;34.65;;;;;;;;;;5036867;28;20521;-67
2022/09/04 06:45:04;;;;;;;60.03;35.58;;;;;;;;;;5038529;28;20037;-67
2022/09/04 06:47:53;;;;;;;58.55;35.97;;;;;;;;;;5050835;28;20132;-67
2022/09/04 06:50:38;;;;;;;60.08;35.85;;;;;;;;;;5020368;28;20033;-67
2022/09/04 06:53:10;;;;;;;54.17;35.60;;;;;;;;;;5025830;28;20136;-68
2022/09/04 06:55:46;;;;;;;52.95;32.95;;;;;;;;;;5026040;28;20053;-68
2022/09/04 06:58:25;;;;;;;52.38;34.65;;;;;;;;;;5038103;28;20077;-67
2022/09/04 07:00:55;;;;;;;63.72;35.78;;;;;;;;;;5026564;28;20063;-68
2022/09/04 07:03:28;;;;;;;53.25;32.90;;;;;;;;;;5036735;28;20111;-68
2022/09/04 07:06:01;;;;;;;55.15;33.65;;;;;;;;;;5036920;28;20053;-68
2022/09/04 07:08:43;;;;;;;52.65;33.58;;;;;;;;;;5019350;28;20124;-68
2022/09/04 07:11:22;;;;;;;54.97;32.92;;;;;;;;;;5026562;28;20806;-68
2022/09/04 07:14:15;;;;;;;55.60;33.97;;;;;;;;;;5027727;28;20459;-67
2022/09/04 07:16:47;;;;;;;55.53;32.10;;;;;;;;;;5021624;28;20033;-68
2022/09/04 07:19:28;;;;;;;52.03;33.10;;;;;;;;;;5031837;28;20047;-68
2022/09/04 07:22:15;;;;;;;52.33;32.67;;;;;;;;;;5023956;28;20475;-67
2022/09/04 07:24:44;;;;;;;52.53;32.55;;;;;;;;;;5019782;28;20048;-68
2022/09/04 07:27:35;;;;;;;56.22;32.50;;;;;;;;;;5027200;28;20188;-67
2022/09/04 07:30:06;;;;;;;51.40;31.65;;;;;;;;;;5034793;28;20110;-68
2022/09/04 07:32:35;;;;;;;55.60;33.28;;;;;;;;;;5038978;28;20398;-68
2022/09/04 07:35:13;;;;;;;50.78;33.95;;;;;;;;;;5040603;28;20114;-68
2022/09/04 07:37:50;;;;;;;55.05;33.67;;;;;;;;;;5038890;28;20658;-67
2022/09/04 07:40:21;;;;;;;51.38;32.22;;;;;;;;;;5040493;28;20048;-69
2022/09/04 07:42:55;;;;;;;52.42;33.28;;;;;;;;;;5037100;28;20061;-69
2022/09/04 07:45:28;;;;;;;51.50;32.70;;;;;;;;;;5036290;28;20052;-69
2022/09/04 07:48:09;;;;;;;50.72;32.45;;;;;;;;;;5038034;28;20128;-68
2022/09/04 07:51:03;;;;;;;59.40;32.95;;;;;;;;;;5037777;28;20086;-68
2022/09/04 07:53:39;;;;;;;50.50;32.20;;;;;;;;;;5015523;28;20036;-68
2022/09/04 07:56:24;;;;;;;55.30;33.72;;;;;;;;;;5044195;28;20132;-69
2022/09/04 07:59:10;;;;;;;52.65;33.75;;;;;;;;;;5040292;28;20037;-68
2022/09/04 08:01:44;;;;;;;55.00;34.55;;;;;;;;;;5040454;28;20068;-69
2022/09/04 08:04:23;;;;;;;50.15;32.63;;;;;;;;;;5040181;28;20052;-69
2022/09/04 08:06:53;;;;;;;51.35;33.03;;;;;;;;;;5031626;28;20053;-68
2022/09/04 08:09:37;;;;;;;51.72;33.00;;;;;;;;;;5028984;28;20159;-68
2022/09/04 08:12:18;;;;;;;52.00;32.70;;;;;;;;;;5039445;28;20045;-66
2022/09/04 08:14:54;;;;;;;62.72;35.15;;;;;;;;;;5055876;28;20033;-67
2022/09/04 08:17:30;;;;;;;69.88;33.30;;;;;;;;;;5026313;28;20145;-66
2022/09/04 08:20:01;;;;;;;53.35;33.40;;;;;;;;;;5023329;28;20050;-67
2022/09/04 08:22:38;;;;;;;51.45;33.75;;;;;;;;;;5031294;28;20579;-66
2022/09/04 08:25:27;;;;;;;50.53;32.60;;;;;;;;;;5040837;28;21777;-67
2022/09/04 08:28:16;;;;;;;53.05;32.58;;;;;;;;;;5022600;28;20037;-67
2022/09/04 08:30:49;;;;;;;53.90;33.38;;;;;;;;;;5023125;28;20402;-68
2022/09/04 08:33:28;;;;;;;51.05;34.13;;;;;;;;;;5030221;28;20048;-67
2022/09/04 08:36:14;;;;;;;53.53;33.22;;;;;;;;;;5040658;28;20029;-67
2022/09/04 08:38:47;;;;;;;55.75;34.42;;;;;;;;;;5039282;28;20045;-67
2022/09/04 08:41:29;;;;;;;52.53;34.60;;;;;;;;;;5041256;28;20064;-66
2022/09/04 08:44:01;;;;;;;60.13;35.40;;;;;;;;;;5028191;28;20052;-66
2022/09/04 08:46:45;;;;;;;53.70;35.47;;;;;;;;;;5038863;28;20061;-66
2022/09/04 08:49:11;;;;;;;58.53;35.55;;;;;;;;;;5041843;28;20557;-66
2022/09/04 08:51:55;;;;;;;57.88;36.15;;;;;;;;;;5040907;28;20067;-66
2022/09/04 08:54:40;;;;;;;57.05;35.20;;;;;;;;;;5039583;28;20045;-67
2022/09/04 08:57:15;;;;;;;52.80;35.72;;;;;;;;;;5043933;28;20094;-66
2022/09/04 08:59:57;;;;;;;56.90;36.10;;;;;;;;;;5057776;28;20384;-66
2022/09/04 09:02:41;;;;;;;49.67;34.47;;;;;;;;;;5031076;28;20045;-66
2022/09/04 09:05:27;;;;;;;49.45;34.65;;;;;;;;;;5042871;28;20071;-67
2022/09/04 09:07:53;;;;;;;53.60;35.33;;;;;;;;;;5035348;28;20838;-66
2022/09/04 09:10:35;;;;;;;48.95;33.92;;;;;;;;;;5026652;28;20037;-66
2022/09/04 09:13:02;;;;;;;50.83;35.70;;;;;;;;;;5027318;28;20060;-67
2022/09/04 09:15:47;;;;;;;55.05;34.20;;;;;;;;;;5026243;28;20037;-68
2022/09/04 09:18:30;;;;;;;53.80;36.58;;;;;;;;;;5029573;28;20041;-66
2022/09/04 09:20:56;;;;;;;;;;;;;;;;;;5029457;28;20486;-66
2022/09/04 09:23:36;;;;;;;51.42;33.67;;;;;;;;;;5027857;28;19916;-67
2022/09/04 09:26:22;;;;;;;48.40;34.47;;;;;;;;;;5022685;28;20058;-67
2022/09/04 09:28:54;;;;;;;51.30;34.25;;;;;;;;;;5031001;28;20045;-67
2022/09/04 09:31:40;;;;;;;51.38;33.40;;;;;;;;;;5029304;28;20445;-67
2022/09/04 09:34:12;;;;;;;53.90;34.92;;;;;;;;;;5020852;28;20055;-68
2022/09/04 09:37:01;;;;;;;54.05;33.55;;;;;;;;;;5020666;28;20077;-68
2022/09/04 09:39:32;;;;;;;48.13;34.50;;;;;;;;;;5019164;28;20199;-67
2022/09/04 09:42:17;;;;;;;55.95;36.35;;;;;;;;;;5019813;28;20060;-67
2022/09/04 09:44:54;;;;;;;51.10;33.58;;;;;;;;;;5018054;28;20091;-66
2022/09/04 09:47:33;;;;;;;48.63;32.60;;;;;;;;;;5018994;28;20064;-66
2022/09/04 09:50:19;;;;;;;48.58;32.63;;;;;;;;;;5018142;28;20038;-64
2022/09/04 09:53:00;;;;;;;51.38;34.55;;;;;;;;;;5017494;28;21771;-66
2022/09/04 09:55:26;;;;;;;49.65;33.85;;;;;;;;;;5016909;28;20132;-66
2022/09/04 09:58:08;;;;;;;52.00;34.65;;;;;;;;;;5018986;28;20050;-65
2022/09/04 10:00:45;;;;;;;52.13;34.28;;;;;;;;;;5017634;28;20048;-65
2022/09/04 10:03:30;;;;;;;52.30;34.20;;;;;;;;;;5018059;28;20065;-64
2022/09/04 10:06:02;;;;;;;51.97;35.08;;;;;;;;;;5017185;28;20115;-65
2022/09/04 10:08:38;;;;;;;51.42;33.97;;;;;;;;;;5027841;28;20064;-65
2022/09/04 10:11:23;;;;;;;51.92;34.13;;;;;;;;;;5038010;28;20835;-65
2022/09/04 10:14:08;;;;;;;52.20;33.60;;;;;;;;;;5023460;28;20049;-65
2022/09/04 10:16:41;;;;;;;50.45;34.53;;;;;;;;;;5036396;28;20553;-65
2022/09/04 10:19:18;;;;;;;49.05;34.17;;;;;;;;;;5036993;28;20045;-65
2022/09/04 10:22:19;;;;;;;54.00;33.70;;;;;;;;;;5035865;28;20053;-65
2022/09/04 10:25:05;;;;;;;51.50;34.65;;;;;;;;;;4973625;28;20045;-65
2022/09/04 10:27:54;;;;;;;51.83;34.75;;;;;;;;;;5025725;28;20068;-64
2022/09/04 10:30:24;;;;;;;53.47;34.42;;;;;;;;;;5009670;28;20049;-65
2022/09/04 10:32:50;;;;;;;55.00;34.00;;;;;;;;;;5026725;28;20073;-65
2022/09/04 10:35:42;;;;;;;50.10;35.05;;;;;;;;;;5025766;28;20068;-65
2022/09/04 10:38:26;;;;;;;52.80;35.65;;;;;;;;;;5026889;28;20037;-65
2022/09/04 10:41:11;;;;;;;62.20;35.30;;;;;;;;;;5026211;28;20045;-64
2022/09/04 10:43:56;;;;;;;52.47;34.60;;;;;;;;;;5035195;28;20116;-67
2022/09/04 10:46:26;;;;;;;51.42;35.05;;;;;;;;;;5028469;28;20067;-67
2022/09/04 10:49:11;;;;;;;55.08;34.80;;;;;;;;;;5041565;28;20052;-68
2022/09/04 10:51:57;;;;;;;63.25;35.08;;;;;;;;;;5040756;28;20151;-68
2022/09/04 10:54:43;;;;;;;48.83;34.08;;;;;;;;;;5029966;28;20041;-67
2022/09/04 10:57:23;;;;;;;54.88;33.00;;;;;;;;;;5019030;28;20049;-66
2022/09/04 10:59:59;;;;;;;54.47;34.58;;;;;;;;;;5026511;28;20053;-64
2022/09/04 11:02:25;;;;;;;53.38;34.25;;;;;;;;;;5032508;28;20051;-66
2022/09/04 11:04:58;;;;;;;54.25;35.90;;;;;;;;;;5019395;28;20040;-68
2022/09/04 11:07:25;;;;;;;;;;;;;;;;;;5020671;28;20049;-67
2022/09/04 11:10:03;;;;;;;50.13;32.20;;;;;;;;;;5048868;28;19917;-68
2022/09/04 11:12:35;;;;;;;48.42;32.45;;;;;;;;;;5027312;28;20053;-68
2022/09/04 11:15:06;;;;;;;54.13;32.83;;;;;;;;;;5017725;28;20674;-68
2022/09/04 11:17:52;;;;;;;51.10;33.30;;;;;;;;;;5016343;28;20041;-68
2022/09/04 11:20:21;;;;;;;50.85;33.38;;;;;;;;;;5018034;28;20190;-68
2022/09/04 11:23:05;;;;;;;50.95;32.92;;;;;;;;;;5037096;28;20690;-68
2022/09/04 11:25:50;;;;;;;50.17;32.58;;;;;;;;;;5016463;28;20096;-68
2022/09/04 11:28:39;;;;;;;51.45;32.20;;;;;;;;;;5018740;28;20486;-68
2022/09/04 11:31:20;;;;;;;46.78;32.05;;;;;;;;;;5049685;28;20134;-67
2022/09/04 11:33:47;;;;;;;50.30;32.00;;;;;;;;;;5040267;28;20040;-67
2022/09/04 11:36:17;;;;;;;51.05;33.30;;;;;;;;;;5041684;28;20060;-67
2022/09/04 11:38:59;;;;;;;48.53;33.17;;;;;;;;;;5042930;28;20060;-67
2022/09/04 11:41:31;;;;;;;59.10;34.80;;;;;;;;;;5044266;28;20035;-68
2022/09/04 11:44:01;;;;;;;49.88;33.30;;;;;;;;;;5032796;28;20056;-68
2022/09/04 11:46:46;;;;;;;51.95;32.88;;;;;;;;;;5041855;28;20056;-68
2022/09/04 11:49:12;;;;;;;48.03;32.17;;;;;;;;;;5038643;28;20687;-68
2022/09/04 11:51:54;;;;;;;51.00;33.03;;;;;;;;;;5056523;28;20876;-68
2022/09/04 11:54:38;;;;;;;47.13;31.70;;;;;;;;;;5027783;28;20848;-68
2022/09/04 11:57:04;;;;;;;47.30;31.65;;;;;;;;;;5027203;28;20050;-68
2022/09/04 11:59:41;;;;;;;51.58;32.60;;;;;;;;;;5033026;28;20116;-68
2022/09/04 12:02:26;;;;;;;52.00;33.25;;;;;;;;;;5023071;28;20616;-68
2022/09/04 12:05:12;;;;;;;50.95;31.92;;;;;;;;;;5023222;28;20037;-68
2022/09/04 12:07:58;;;;;;;54.50;33.33;;;;;;;;;;5043035;28;20140;-68
2022/09/04 12:10:25;;;;;;;53.58;32.60;;;;;;;;;;5022627;28;20049;-68
2022/09/04 12:13:00;;;;;;;64.10;33.65;;;;;;;;;;5022334;28;20041;-68
2022/09/04 12:15:43;;;;;;;52.83;32.47;;;;;;;;;;5054312;28;20067;-68
2022/09/04 12:18:16;;;;;;;51.97;32.20;;;;;;;;;;5022343;28;20045;-68
2022/09/04 12:20:46;;;;;;;49.05;32.13;;;;;;;;;;5021742;28;20470;-68
2022/09/04 12:23:31;;;;;;;47.30;31.52;;;;;;;;;;5020686;28;20135;-68
2022/09/04 12:26:16;;;;;;;48.13;30.58;;;;;;;;;;5050658;28;20048;-68
2022/09/04 12:28:52;;;;;;;45.60;30.50;;;;;;;;;;5046529;28;20123;-67
2022/09/04 12:31:21;;;;;;;45.53;30.83;;;;;;;;;;5044428;28;20980;-67
2022/09/04 12:33:56;;;;;;;46.05;30.58;;;;;;;;;;5029240;28;20072;-67
2022/09/04 12:36:41;;;;;;;49.67;31.35;;;;;;;;;;5041375;28;20037;-67
2022/09/04 12:39:14;;;;;;;54.28;31.95;;;;;;;;;;5041751;28;20037;-68
2022/09/04 12:42:00;;;;;;;46.58;30.98;;;;;;;;;;5026853;28;20482;-68
2022/09/04 12:44:35;;;;;;;47.92;30.65;;;;;;;;;;5031890;28;20045;-68
2022/09/04 12:47:12;;;;;;;43.95;29.17;;;;;;;;;;5029185;28;20072;-68
2022/09/04 12:49:59;;;;;;;46.75;30.52;;;;;;;;;;5053874;28;20045;-68
2022/09/04 12:52:40;;;;;;;43.97;29.70;;;;;;;;;;5052045;28;20048;-68
2022/09/04 12:55:21;;;;;;;49.42;30.85;;;;;;;;;;5030184;28;20947;-68
2022/09/04 12:58:06;;;;;;;43.97;30.95;;;;;;;;;;5029769;28;20065;-69
2022/09/04 13:00:40;;;;;;;44.17;30.70;;;;;;;;;;5023425;28;20065;-68
2022/09/04 13:03:24;;;;;;;42.10;29.42;;;;;;;;;;5028670;28;20049;-68
2022/09/04 13:06:29;;;;;;;43.28;30.05;;;;;;;;;;5051734;28;20049;-68
2022/09/04 13:09:03;;;;;;;42.70;29.05;;;;;;;;;;4987400;28;20562;-68
2022/09/04 13:11:39;;;;;;;48.65;30.25;;;;;;;;;;4976753;28;20045;-67
2022/09/04 13:14:18;;;;;;;47.83;30.08;;;;;;;;;;5023620;28;20103;-67
2022/09/04 13:16:44;;;;;;;43.15;28.95;;;;;;;;;;5024680;28;20097;-67
2022/09/04 13:19:21;;;;;;;44.10;29.58;;;;;;;;;;5042256;28;20041;-67
2022/09/04 13:22:01;;;;;;;43.03;29.30;;;;;;;;;;5035180;28;20045;-68
2022/09/04 13:24:40;;;;;;;44.35;28.15;;;;;;;;;;5032839;28;21897;-67
2022/09/04 13:27:14;;;;;;;44.30;28.73;;;;;;;;;;5028578;28;20076;-68
2022/09/04 13:29:41;;;;;;;41.22;27.83;;;;;;;;;;5025809;28;20618;-65
2022/09/04 13:32:20;;;;;;;42.47;28.55;;;;;;;;;;5038125;28;20037;-65
2022/09/04 13:35:02;;;;;;;42.70;27.90;;;;;;;;;;5045370;28;20041;-66
2022/09/04 13:37:37;;;;;;;41.97;27.83;;;;;;;;;;5041745;28;20083;-67
2022/09/04 13:40:21;;;;;;;44.53;28.85;;;;;;;;;;5035062;28;20640;-67
2022/09/04 13:43:06;;;;;;;42.35;28.48;;;;;;;;;;5030910;28;20045;-67
2022/09/04 13:45:40;;;;;;;40.65;26.90;;;;;;;;;;5038615;28;20045;-67
2022/09/04 13:48:10;;;;;;;43.97;29.27;;;;;;;;;;5032785;28;20862;-67
2022/09/04 13:50:40;;;;;;;44.72;28.35;;;;;;;;;;5032584;28;20112;-68
2022/09/04 13:53:11;;;;;;;45.28;28.45;;;;;;;;;;5028496;28;21261;-68
2022/09/04 13:55:58;;;;;;;42.60;28.52;;;;;;;;;;5039355;28;20417;-68
2022/09/04 13:58:29;;;;;;;42.60;28.40;;;;;;;;;;5038377;28;20047;-68
2022/09/04 14:00:59;;;;;;;40.40;28.10;;;;;;;;;;5022238;28;20041;-68
2022/09/04 14:03:40;;;;;;;45.00;28.67;;;;;;;;;;5037085;28;20091;-68
2022/09/04 14:06:09;;;;;;;39.47;27.80;;;;;;;;;;5038508;28;20045;-67
2022/09/04 14:08:38;;;;;;;43.47;27.77;;;;;;;;;;5039630;28;20052;-67
2022/09/04 14:11:22;;;;;;;42.20;27.98;;;;;;;;;;5041428;28;20037;-66
2022/09/04 14:13:50;;;;;;;40.50;27.65;;;;;;;;;;5036326;28;20052;-67
2022/09/04 14:16:17;;;;;;;39.58;27.40;;;;;;;;;;5024737;28;20537;-68
2022/09/04 14:18:59;;;;;;;40.25;26.88;;;;;;;;;;5025875;28;20130;-67
2022/09/04 14:21:36;;;;;;;41.50;26.02;;;;;;;;;;5041506;28;20037;-67
2022/09/04 14:24:10;;;;;;;37.20;26.52;;;;;;;;;;5041303;28;20462;-67
2022/09/04 14:26:43;;;;;;;38.20;25.83;;;;;;;;;;5030744;28;20054;-66
2022/09/04 14:29:09;;;;;;;;;;;;;;;;;;5025978;28;20497;-67
2022/09/04 14:31:54;;;;;;;38.58;25.42;;;;;;;;;;5022883;28;20062;-67
2022/09/04 14:34:27;;;;;;;38.65;25.52;;;;;;;;;;5024394;28;20052;-67
2022/09/04 14:37:12;;;;;;;40.83;26.17;;;;;;;;;;5039603;28;20041;-68
2022/09/04 14:39:47;;;;;;;42.20;25.40;;;;;;;;;;5038304;28;20047;-68
2022/09/04 14:42:21;;;;;;;57.92;25.92;;;;;;;;;;5038214;28;20045;-68
2022/09/04 14:44:57;;;;;;;39.60;25.00;;;;;;;;;;5023964;28;20069;-68
2022/09/04 14:47:30;;;;;;;34.00;22.88;;;;;;;;;;5037362;28;20052;-68
2022/09/04 14:50:01;;;;;;;29.52;21.50;;;;;;;;;;5038409;28;20622;-67
2022/09/04 14:52:32;;;;;;;34.47;22.27;;;;;;;;;;5033042;28;20380;-67
2022/09/04 14:54:58;;;;;;;31.58;20.80;;;;;;;;;;5042125;28;20037;-65
2022/09/04 14:57:31;;;;;;;30.02;20.55;;;;;;;;;;5030879;28;20037;-65
2022/09/04 14:59:57;;;;;;;;;;;;;;;;;;5043598;28;20036;-65
2022/09/04 15:02:30;;;;;;;33.58;21.27;;;;;;;;;;5040815;28;19928;-65
2022/09/04 15:05:00;;;;;;;31.75;20.05;;;;;;;;;;5041195;28;20047;-65
2022/09/04 15:07:28;;;;;;;29.20;19.98;;;;;;;;;;5039395;28;20125;-65
2022/09/04 15:10:05;;;;;;;30.92;20.45;;;;;;;;;;5041252;28;20125;-65
2022/09/04 15:12:33;;;;;;;30.00;20.42;;;;;;;;;;5042245;28;20037;-65
2022/09/04 15:15:09;;;;;;;30.17;21.42;;;;;;;;;;5029788;28;20065;-66
2022/09/04 15:17:38;;;;;;;32.38;20.83;;;;;;;;;;5030345;28;20587;-66
2022/09/04 15:20:24;;;;;;;27.05;19.45;;;;;;;;;;5038183;28;20147;-66
2022/09/04 15:23:14;;;;;;;29.15;19.67;;;;;;;;;;5026558;28;20557;-66
2022/09/04 15:25:55;;;;;;;30.80;20.25;;;;;;;;;;4997447;28;20785;-63